createdAt,value
2022-12-31T00:00:01.725Z,53.5
2022-12-31T00:01:09.185Z,54.6
2022-12-31T00:02:16.396Z,54.4
2022-12-31T00:03:23.682Z,54
2022-12-31T00:04:32.094Z,52.1
2022-12-31T00:05:40.143Z,50.2
2022-12-31T00:06:49.999Z,51.9
2022-12-31T00:07:58.579Z,54.1
2022-12-31T00:09:06.285Z,49.6
2022-12-31T00:10:13.981Z,49.1
2022-12-31T00:11:22.828Z,39.4
2022-12-31T00:12:30.375Z,41.5
2022-12-31T00:13:38.367Z,39.4
2022-12-31T00:14:47.147Z,42.2
2022-12-31T00:15:55.388Z,43.3
2022-12-31T00:17:08.446Z,40.6
2022-12-31T00:18:15.928Z,41.6
2022-12-31T00:19:24.160Z,43.4
2022-12-31T00:20:33.617Z,39.8
2022-12-31T00:21:44.836Z,38.6
2022-12-31T00:22:53.232Z,42.5
2022-12-31T00:24:02.249Z,41
2022-12-31T00:25:11.341Z,38.8
2022-12-31T00:26:19.958Z,37.2
2022-12-31T00:27:28.683Z,39.4
2022-12-31T00:28:35.818Z,39.4
2022-12-31T00:29:44.154Z,39.4
2022-12-31T00:30:51.156Z,39.4
2022-12-31T00:31:58.096Z,39.4
2022-12-31T00:33:04.924Z,33.9
2022-12-31T00:34:14.150Z,32.2
2022-12-31T00:35:21.381Z,35.9
2022-12-31T00:36:29.385Z,34.3
2022-12-31T00:37:38.780Z,33.5
2022-12-31T00:38:47.233Z,33.2
2022-12-31T00:39:54.457Z,35.6
2022-12-31T00:41:02.588Z,33.8
2022-12-31T00:42:10.677Z,32.3
2022-12-31T00:43:18.761Z,31.4
2022-12-31T00:44:27.212Z,32.4
2022-12-31T00:45:35.562Z,29.9
2022-12-31T00:47:49.525Z,29.5
2022-12-31T00:48:56.965Z,31.9
2022-12-31T00:50:03.845Z,30.8
2022-12-31T00:51:13.816Z,30
2022-12-31T00:52:22.914Z,29.5
2022-12-31T00:53:30.016Z,28.7
2022-12-31T00:54:37.925Z,29.8
2022-12-31T00:55:48.092Z,27.8
2022-12-31T00:56:55.380Z,26.9
2022-12-31T00:58:04.184Z,27
2022-12-31T00:59:12.376Z,26.3
2022-12-31T01:00:20.948Z,24.3
2022-12-31T01:01:28.732Z,26.8
2022-12-31T01:02:36.487Z,27
2022-12-31T01:03:43.172Z,27.6
2022-12-31T01:04:51.229Z,23.1
2022-12-31T01:05:59.467Z,24.4
2022-12-31T01:07:07.004Z,24.6
2022-12-31T01:08:14.290Z,25.5
2022-12-31T01:09:23.985Z,24.4
2022-12-31T01:10:30.861Z,21.7
2022-12-31T01:11:44.513Z,20.7
2022-12-31T01:12:53.491Z,23.7
2022-12-31T01:14:01.365Z,22.7
2022-12-31T01:15:16.273Z,25.3
2022-12-31T01:16:24.623Z,25.6
2022-12-31T01:17:36.004Z,23.3
2022-12-31T01:18:43.988Z,22.8
2022-12-31T01:19:54.107Z,22.7
2022-12-31T01:21:01.751Z,22.1
2022-12-31T01:22:09.204Z,19.6
2022-12-31T01:23:18.181Z,20.4
2022-12-31T01:24:26.181Z,19.9
2022-12-31T01:25:35.279Z,19.9
2022-12-31T01:26:44.439Z,22.7
2022-12-31T01:27:52.617Z,21.4
2022-12-31T01:29:01.084Z,21.2
2022-12-31T01:30:08.392Z,19
2022-12-31T01:31:16.889Z,20.2
2022-12-31T01:32:25.193Z,21.1
2022-12-31T01:33:32.711Z,20.4
2022-12-31T01:34:39.750Z,22.3
2022-12-31T01:35:47.543Z,20.9
2022-12-31T01:36:55.376Z,21.7
2022-12-31T01:38:04.472Z,21.6
2022-12-31T01:39:11.944Z,21
2022-12-31T01:40:18.916Z,22.6
2022-12-31T01:41:26.005Z,23.1
2022-12-31T01:42:33.015Z,23.9
2022-12-31T01:43:40.372Z,23.6
2022-12-31T01:44:51.382Z,22
2022-12-31T01:45:59.762Z,21.9
2022-12-31T01:47:06.755Z,21.2
2022-12-31T01:48:17.117Z,22.2
2022-12-31T01:49:25.700Z,21.1
2022-12-31T01:50:40.277Z,21.9
2022-12-31T01:51:48.641Z,20.7
2022-12-31T01:53:00.788Z,19.6
2022-12-31T01:54:09.009Z,21.8
2022-12-31T01:55:17.420Z,22.5
2022-12-31T01:56:24.809Z,23.5
2022-12-31T01:57:34.361Z,23.4
2022-12-31T01:58:42.272Z,20.4
2022-12-31T01:59:51.588Z,22.3
2022-12-31T02:00:59.657Z,18.9
2022-12-31T02:02:07.135Z,19.3
2022-12-31T02:03:16.158Z,19.4
2022-12-31T02:04:24.029Z,18.4
2022-12-31T02:05:32.978Z,19.4
2022-12-31T02:06:41.374Z,18.1
2022-12-31T02:07:54.815Z,17.1
2022-12-31T02:09:04.080Z,18.2
2022-12-31T02:10:13.172Z,17.8
2022-12-31T02:11:20.300Z,18.2
2022-12-31T02:12:31.864Z,17.5
2022-12-31T02:13:40.562Z,16.7
2022-12-31T02:14:48.526Z,17.7
2022-12-31T02:15:57.995Z,18.6
2022-12-31T02:17:14.105Z,15.6
2022-12-31T02:18:32.495Z,17.6
2022-12-31T02:19:45.798Z,14.6
2022-12-31T02:20:58.632Z,16.3
2022-12-31T02:22:16.670Z,16.5
2022-12-31T02:23:35.324Z,16
2022-12-31T02:24:48.147Z,15.3
2022-12-31T02:25:59.079Z,16.2
2022-12-31T02:27:18.307Z,17.4
2022-12-31T02:28:38.119Z,18
2022-12-31T02:29:53.442Z,16.4
2022-12-31T02:31:09.561Z,17.5
2022-12-31T02:32:22.395Z,16.9
2022-12-31T02:33:36.210Z,17.5
2022-12-31T02:34:48.753Z,18.6
2022-12-31T02:35:56.445Z,16.2
2022-12-31T02:37:03.855Z,18.5
2022-12-31T02:38:12.323Z,17.7
2022-12-31T02:39:25.591Z,18.4
2022-12-31T02:40:33.865Z,17.7
2022-12-31T02:41:41.242Z,19.4
2022-12-31T02:42:55.676Z,18.5
2022-12-31T02:44:03.831Z,19
2022-12-31T02:45:22.987Z,16.4
2022-12-31T02:46:31.400Z,16
2022-12-31T02:47:39.451Z,16.1
2022-12-31T02:48:57.523Z,16.3
2022-12-31T02:50:08.597Z,16.2
2022-12-31T02:51:23.875Z,16.1
2022-12-31T02:52:34.652Z,14.6
2022-12-31T02:53:53.181Z,16
2022-12-31T02:55:07.282Z,16.4
2022-12-31T02:56:25.572Z,15.4
2022-12-31T02:57:39.222Z,17.3
2022-12-31T02:58:52.648Z,15.9
2022-12-31T03:00:05.419Z,15.9
2022-12-31T03:01:18.854Z,17.5
2022-12-31T03:02:31.620Z,16
2022-12-31T03:03:43.246Z,17.9
2022-12-31T03:04:52.043Z,17.3
2022-12-31T03:06:01.138Z,17.3
2022-12-31T03:07:10.557Z,18.2
2022-12-31T03:08:19.004Z,18.3
2022-12-31T03:09:31.537Z,21.6
2022-12-31T03:10:41.407Z,24
2022-12-31T03:11:50.100Z,23.1
2022-12-31T03:13:03.542Z,21.7
2022-12-31T03:14:11.383Z,19.6
2022-12-31T03:15:19.335Z,20.7
2022-12-31T03:16:26.987Z,22.6
2022-12-31T03:17:36.105Z,21.1
2022-12-31T03:18:44.484Z,23.5
2022-12-31T03:19:57.083Z,23.6
2022-12-31T03:21:10.799Z,20.6
2022-12-31T03:22:25.599Z,20.4
2022-12-31T03:23:33.742Z,21.7
2022-12-31T03:24:46.786Z,21.9
2022-12-31T03:26:03.762Z,21.9
2022-12-31T03:27:14.101Z,20.5
2022-12-31T03:28:21.431Z,23.4
2022-12-31T03:29:29.243Z,20.7
2022-12-31T03:30:36.315Z,21.9
2022-12-31T03:31:44.227Z,19.2
2022-12-31T03:32:51.442Z,19.8
2022-12-31T03:33:59.272Z,20.2
2022-12-31T03:35:07.252Z,18.7
2022-12-31T03:36:14.549Z,19
2022-12-31T03:37:22.927Z,20.8
2022-12-31T03:38:31.183Z,21.9
2022-12-31T03:39:38.952Z,20.5
2022-12-31T03:40:47.647Z,20.8
2022-12-31T03:41:54.695Z,23.1
2022-12-31T03:43:02.066Z,21.8
2022-12-31T03:44:09.912Z,23.1
2022-12-31T03:45:20.268Z,19.6
2022-12-31T03:46:29.237Z,20.2
2022-12-31T03:47:37.338Z,19.7
2022-12-31T03:48:46.225Z,18.4
2022-12-31T03:49:55.715Z,17.8
2022-12-31T03:51:02.579Z,16.8
2022-12-31T03:52:10.650Z,17.8
2022-12-31T03:53:18.448Z,17.9
2022-12-31T03:54:25.867Z,18.1
2022-12-31T03:55:33.901Z,17.3
2022-12-31T03:56:44.031Z,17.1
2022-12-31T03:57:52.547Z,16.9
2022-12-31T03:58:59.794Z,17.2
2022-12-31T04:00:07.716Z,15.8
2022-12-31T04:01:18.595Z,15.6
2022-12-31T04:02:28.735Z,15.9
2022-12-31T04:03:34.404Z,16.2
2022-12-31T04:04:42.115Z,16.6
2022-12-31T04:05:50.651Z,16.2
2022-12-31T04:06:58.559Z,17.9
2022-12-31T04:08:06.808Z,15.7
2022-12-31T04:09:14.854Z,15.6
2022-12-31T04:10:22.253Z,17.6
2022-12-31T04:11:30.051Z,18.4
2022-12-31T04:12:38.165Z,17.5
2022-12-31T04:13:45.746Z,16.9
2022-12-31T04:14:53.956Z,16.6
2022-12-31T04:16:01.717Z,18.4
2022-12-31T04:17:09.961Z,18.4
2022-12-31T04:18:19.075Z,18.4
2022-12-31T04:19:27.375Z,17.3
2022-12-31T04:20:35.906Z,18.2
2022-12-31T04:21:45.231Z,15.8
2022-12-31T04:22:53.325Z,17.9
2022-12-31T04:24:02.703Z,17.5
2022-12-31T04:25:10.687Z,18.1
2022-12-31T04:26:18.383Z,16.5
2022-12-31T04:27:26.139Z,16.3
2022-12-31T04:28:33.445Z,17.3
2022-12-31T04:29:41.565Z,17.9
2022-12-31T04:30:48.970Z,15.8
2022-12-31T04:31:57.168Z,17
2022-12-31T04:33:05.115Z,17.3
2022-12-31T04:34:12.468Z,17
2022-12-31T04:35:20.410Z,16.3
2022-12-31T04:36:28.721Z,17.4
2022-12-31T04:37:36.478Z,14.8
2022-12-31T04:38:44.999Z,16
2022-12-31T04:39:51.812Z,15.6
2022-12-31T04:41:00.833Z,17.4
2022-12-31T04:42:13.648Z,16.6
2022-12-31T04:43:21.126Z,15
2022-12-31T04:44:28.433Z,15.1
2022-12-31T04:45:36.362Z,13.6
2022-12-31T04:46:44.872Z,14.8
2022-12-31T04:47:53.191Z,14.6
2022-12-31T04:49:01.043Z,14.9
2022-12-31T04:50:09.902Z,13.8
2022-12-31T04:51:18.464Z,13.6
2022-12-31T04:52:25.799Z,13.4
2022-12-31T04:53:33.189Z,13.4
2022-12-31T04:54:40.325Z,14.4
2022-12-31T04:55:47.594Z,14.7
2022-12-31T04:56:55.455Z,15.3
2022-12-31T04:58:04.000Z,13.4
2022-12-31T04:59:11.370Z,13.7
2022-12-31T05:00:19.798Z,12.9
2022-12-31T05:01:26.971Z,13.7
2022-12-31T05:02:34.618Z,16.1
2022-12-31T05:03:42.524Z,13.7
2022-12-31T05:04:50.957Z,15.4
2022-12-31T05:05:59.694Z,15.5
2022-12-31T05:07:07.668Z,15.9
2022-12-31T05:08:15.065Z,17.3
2022-12-31T05:09:22.504Z,15.7
2022-12-31T05:10:33.148Z,16.3
2022-12-31T05:11:40.946Z,18
2022-12-31T05:12:48.711Z,17.1
2022-12-31T05:13:57.565Z,17.6
2022-12-31T05:15:06.222Z,14.1
2022-12-31T05:16:13.845Z,17.5
2022-12-31T05:17:21.109Z,15.4
2022-12-31T05:18:30.128Z,15.6
2022-12-31T05:19:38.577Z,15.4
2022-12-31T05:20:45.792Z,16.2
2022-12-31T05:21:52.788Z,16.9
2022-12-31T05:23:06.455Z,14.1
2022-12-31T05:24:13.940Z,16.1
2022-12-31T05:25:22.709Z,14.9
2022-12-31T05:26:31.175Z,14.4
2022-12-31T05:27:39.568Z,14.6
2022-12-31T05:28:47.376Z,14.9
2022-12-31T05:29:55.605Z,14
2022-12-31T05:31:04.401Z,15
2022-12-31T05:32:12.005Z,14.7
2022-12-31T05:33:21.500Z,15.1
2022-12-31T05:34:29.453Z,15.2
2022-12-31T05:35:38.531Z,13.8
2022-12-31T05:36:45.753Z,12.8
2022-12-31T05:37:53.668Z,13.7
2022-12-31T05:39:02.232Z,15.1
2022-12-31T05:40:11.073Z,13.4
2022-12-31T05:41:18.244Z,13.1
2022-12-31T05:42:26.430Z,13.8
2022-12-31T05:43:35.976Z,13.7
2022-12-31T05:44:44.412Z,14.5
2022-12-31T05:45:53.353Z,14
2022-12-31T05:47:02.816Z,12.2
2022-12-31T05:48:11.012Z,14.1
2022-12-31T05:49:19.556Z,14.2
2022-12-31T05:50:27.052Z,12.9
2022-12-31T05:51:33.936Z,13.9
2022-12-31T05:52:45.674Z,14.9
2022-12-31T05:53:50.177Z,14.6
2022-12-31T05:54:58.633Z,14.7
2022-12-31T05:56:06.069Z,15.2
2022-12-31T05:57:14.165Z,14.7
2022-12-31T05:58:23.181Z,14.5
2022-12-31T05:59:30.808Z,13.8
2022-12-31T06:00:38.036Z,15.6
2022-12-31T06:01:46.424Z,16.3
2022-12-31T06:02:53.540Z,13.8
2022-12-31T06:04:01.963Z,15.5
2022-12-31T06:05:09.396Z,14.9
2022-12-31T06:06:17.598Z,13.6
2022-12-31T06:07:25.513Z,14.5
2022-12-31T06:08:32.927Z,13.8
2022-12-31T06:09:40.975Z,13.9
2022-12-31T06:10:50.178Z,14.8
2022-12-31T06:11:57.263Z,13.2
2022-12-31T06:13:04.805Z,14.1
2022-12-31T06:14:13.299Z,13.9
2022-12-31T06:15:21.115Z,14.5
2022-12-31T06:16:28.349Z,15.9
2022-12-31T06:17:35.619Z,16
2022-12-31T06:18:43.468Z,15.9
2022-12-31T06:19:50.852Z,14.9
2022-12-31T06:20:58.040Z,17.8
2022-12-31T06:22:05.477Z,16.9
2022-12-31T06:23:13.488Z,14.6
2022-12-31T06:24:20.999Z,15
2022-12-31T06:25:28.893Z,14.6
2022-12-31T06:26:37.387Z,15.3
2022-12-31T06:27:44.926Z,16.7
2022-12-31T06:28:53.089Z,16.9
2022-12-31T06:30:00.714Z,15.3
2022-12-31T06:31:08.957Z,13.9
2022-12-31T06:32:19.552Z,16.5
2022-12-31T06:33:26.683Z,17.3
2022-12-31T06:34:34.586Z,17.2
2022-12-31T06:35:42.549Z,15.8
2022-12-31T06:36:50.232Z,15.7
2022-12-31T06:37:57.410Z,15.5
2022-12-31T06:39:06.594Z,15.5
2022-12-31T06:40:14.466Z,14.9
2022-12-31T06:41:22.923Z,16.6
2022-12-31T06:42:30.032Z,15.4
2022-12-31T06:43:37.072Z,14.7
2022-12-31T06:44:45.796Z,16.1
2022-12-31T06:45:53.336Z,16.1
2022-12-31T06:47:02.367Z,16.4
2022-12-31T06:48:10.140Z,17.1
2022-12-31T06:49:17.301Z,17.1
2022-12-31T06:50:27.010Z,16
2022-12-31T06:51:34.525Z,18
2022-12-31T06:52:44.235Z,16.7
2022-12-31T06:53:53.572Z,17.3
2022-12-31T06:55:02.689Z,17.2
2022-12-31T06:56:11.319Z,17.6
2022-12-31T06:57:25.020Z,16.1
2022-12-31T06:58:33.018Z,17.1
2022-12-31T06:59:40.664Z,16
2022-12-31T07:00:47.973Z,17.1
2022-12-31T07:02:01.972Z,16.2
2022-12-31T07:03:20.525Z,17
2022-12-31T07:04:33.005Z,17.3
2022-12-31T07:05:51.195Z,17.6
2022-12-31T07:07:07.920Z,17.5
2022-12-31T07:08:20.706Z,18.8
2022-12-31T07:09:28.037Z,17.4
2022-12-31T07:10:44.260Z,17.8
2022-12-31T07:12:01.310Z,17.1
2022-12-31T07:13:19.392Z,16.2
2022-12-31T07:14:31.746Z,17.9
2022-12-31T07:15:47.906Z,16.6
2022-12-31T07:17:06.091Z,18.8
2022-12-31T07:18:21.580Z,17.6
2022-12-31T07:19:36.936Z,17
2022-12-31T07:20:49.466Z,14.7
2022-12-31T07:21:57.471Z,15.5
2022-12-31T07:23:04.521Z,15.3
2022-12-31T07:24:13.413Z,15.6
2022-12-31T07:25:22.052Z,16.2
2022-12-31T07:26:29.895Z,15
2022-12-31T07:27:49.155Z,13.2
2022-12-31T07:29:01.639Z,14.2
2022-12-31T07:30:10.758Z,15.7
2022-12-31T07:31:21.447Z,15
2022-12-31T07:32:30.491Z,14.8
2022-12-31T07:33:45.427Z,12.9
2022-12-31T07:35:01.521Z,12.3
2022-12-31T07:36:12.948Z,13.7
2022-12-31T07:37:25.539Z,13
2022-12-31T07:38:42.301Z,12.9
2022-12-31T07:40:00.345Z,14
2022-12-31T07:41:19.647Z,12.4
2022-12-31T07:42:34.027Z,13.3
2022-12-31T07:43:51.955Z,12
2022-12-31T07:45:10.373Z,13
2022-12-31T07:46:23.408Z,12.8
2022-12-31T07:47:36.706Z,12.9
2022-12-31T07:48:45.219Z,11.3
2022-12-31T07:49:53.417Z,14.1
2022-12-31T07:51:00.674Z,13.6
2022-12-31T07:52:08.511Z,12.9
2022-12-31T07:53:16.135Z,11.2
2022-12-31T07:54:24.786Z,12
2022-12-31T07:55:31.979Z,12.1
2022-12-31T07:56:39.205Z,11.2
2022-12-31T07:57:46.464Z,14.5
2022-12-31T07:58:56.666Z,10.9
2022-12-31T08:00:04.700Z,12.4
2022-12-31T08:01:13.907Z,12.2
2022-12-31T08:02:21.590Z,12
2022-12-31T08:03:37.988Z,11.2
2022-12-31T08:04:55.835Z,11.6
2022-12-31T08:06:12.588Z,12.6
2022-12-31T08:07:28.503Z,13.1
2022-12-31T08:08:41.751Z,11.3
2022-12-31T08:09:56.773Z,12
2022-12-31T08:11:10.759Z,13.3
2022-12-31T08:12:26.479Z,13.6
2022-12-31T08:13:34.789Z,13.1
2022-12-31T08:14:42.159Z,11.8
2022-12-31T08:15:51.699Z,11.9
2022-12-31T08:17:01.207Z,12.9
2022-12-31T08:18:08.986Z,13.3
2022-12-31T08:19:16.491Z,12.3
2022-12-31T08:20:35.391Z,11.3
2022-12-31T08:21:44.431Z,11.3
2022-12-31T08:22:57.936Z,11.2
2022-12-31T08:24:07.685Z,11.3
2022-12-31T08:25:19.730Z,12
2022-12-31T08:26:28.211Z,10.7
2022-12-31T08:27:40.920Z,10.1
2022-12-31T08:28:53.464Z,11.1
2022-12-31T08:30:12.004Z,11.8
2022-12-31T08:31:24.925Z,10.9
2022-12-31T08:32:37.527Z,10.4
2022-12-31T08:33:53.596Z,10.3
2022-12-31T08:35:11.390Z,10.9
2022-12-31T08:36:23.522Z,11.5
2022-12-31T08:37:36.189Z,9.7
2022-12-31T08:38:44.455Z,10.3
2022-12-31T08:40:00.577Z,10.7
2022-12-31T08:41:15.741Z,11
2022-12-31T08:42:33.387Z,10.5
2022-12-31T08:43:46.422Z,11.3
2022-12-31T08:44:59.055Z,11.4
2022-12-31T08:46:06.269Z,11.9
2022-12-31T08:47:18.602Z,12.1
2022-12-31T08:48:36.958Z,12.8
2022-12-31T08:49:44.716Z,11.6
2022-12-31T08:50:52.392Z,11.5
2022-12-31T08:52:00.641Z,11.7
2022-12-31T08:53:07.929Z,11.5
2022-12-31T08:54:15.853Z,12
2022-12-31T08:55:23.082Z,13.5
2022-12-31T08:56:30.665Z,12.1
2022-12-31T08:57:38.875Z,12.9
2022-12-31T08:58:51.141Z,12.9
2022-12-31T09:00:08.751Z,12.5
2022-12-31T09:01:19.212Z,12.8
2022-12-31T09:02:27.134Z,12.9
2022-12-31T09:03:45.407Z,12.5
2022-12-31T09:04:58.709Z,13.7
2022-12-31T09:06:16.372Z,12.8
2022-12-31T09:07:25.011Z,12.1
2022-12-31T09:08:37.189Z,11.5
2022-12-31T09:09:47.414Z,11.6
2022-12-31T09:11:02.058Z,11.1
2022-12-31T09:12:13.631Z,11
2022-12-31T09:13:24.669Z,11
2022-12-31T09:14:38.067Z,11.1
2022-12-31T09:15:50.464Z,10.3
2022-12-31T09:17:04.519Z,10.9
2022-12-31T09:18:17.047Z,11.4
2022-12-31T09:19:25.286Z,11.5
2022-12-31T09:20:42.624Z,10.5
2022-12-31T09:21:43.024Z,10.7
2022-12-31T09:22:51.373Z,10
2022-12-31T09:23:58.998Z,10.8
2022-12-31T09:25:06.471Z,10.5
2022-12-31T09:26:16.151Z,9.5
2022-12-31T09:27:33.875Z,10.3
2022-12-31T09:28:46.423Z,10.7
2022-12-31T09:29:59.891Z,10.3
2022-12-31T09:31:12.036Z,8.6
2022-12-31T09:32:23.104Z,9.1
2022-12-31T09:33:41.585Z,9.5
2022-12-31T09:34:55.182Z,8.1
2022-12-31T09:36:10.481Z,8.4
2022-12-31T09:37:19.468Z,11.6
2022-12-31T09:38:37.837Z,10.2
2022-12-31T09:39:52.135Z,12.1
2022-12-31T09:40:59.698Z,10.7
2022-12-31T09:42:14.996Z,7.9
2022-12-31T09:43:28.240Z,11.8
2022-12-31T09:44:46.746Z,9.8
2022-12-31T09:46:03.144Z,11.8
2022-12-31T09:47:20.509Z,10
2022-12-31T09:48:38.040Z,16
2022-12-31T09:49:55.638Z,8.9
2022-12-31T09:51:07.671Z,10.2
2022-12-31T09:52:25.693Z,8.6
2022-12-31T09:53:45.466Z,8.7
2022-12-31T09:54:54.403Z,9.4
2022-12-31T09:56:02.067Z,8.9
2022-12-31T09:57:10.835Z,14
2022-12-31T09:58:28.912Z,9.9
2022-12-31T09:59:41.418Z,9.1
2022-12-31T10:00:57.281Z,9.3
2022-12-31T10:02:05.421Z,9.9
2022-12-31T10:03:15.918Z,11.2
2022-12-31T10:04:28.211Z,11.8
2022-12-31T10:05:43.630Z,8.6
2022-12-31T10:06:59.358Z,8.3
2022-12-31T10:08:15.429Z,8.6
2022-12-31T10:09:27.911Z,8.6
2022-12-31T10:10:42.003Z,9.1
2022-12-31T10:11:49.307Z,8.5
2022-12-31T10:13:05.431Z,10.3
2022-12-31T10:14:15.263Z,8.7
2022-12-31T10:15:31.056Z,11.1
2022-12-31T10:16:46.056Z,9.9
2022-12-31T10:18:03.722Z,8.2
2022-12-31T10:19:20.524Z,7.3
2022-12-31T10:20:45.046Z,7.8
2022-12-31T10:21:56.528Z,7.4
2022-12-31T10:23:15.569Z,7.1
2022-12-31T10:24:23.862Z,8
2022-12-31T10:25:42.163Z,6.9
2022-12-31T10:26:56.483Z,7.7
2022-12-31T10:28:11.667Z,7.2
2022-12-31T10:29:26.846Z,7.2
2022-12-31T10:30:42.542Z,9
2022-12-31T10:31:53.059Z,7.2
2022-12-31T10:33:05.950Z,7.3
2022-12-31T10:34:22.579Z,6.7
2022-12-31T10:35:35.978Z,6.7
2022-12-31T10:36:48.590Z,8.5
2022-12-31T10:37:56.837Z,7.6
2022-12-31T10:39:14.346Z,7
2022-12-31T10:40:25.853Z,7.5
2022-12-31T10:41:35.971Z,6.9
2022-12-31T10:42:56.638Z,7.5
2022-12-31T10:44:12.369Z,7.5
2022-12-31T10:45:31.067Z,6.8
2022-12-31T10:46:48.910Z,7.6
2022-12-31T10:48:06.519Z,8.4
2022-12-31T10:49:24.127Z,7.8
2022-12-31T10:50:41.655Z,9.3
2022-12-31T10:51:59.755Z,8.4
2022-12-31T10:53:16.693Z,7.3
2022-12-31T10:54:32.099Z,8.5
2022-12-31T10:55:49.282Z,8.3
2022-12-31T10:56:59.797Z,7.7
2022-12-31T10:58:13.475Z,8.1
2022-12-31T10:59:30.388Z,8.8
2022-12-31T11:00:47.116Z,8.4
2022-12-31T11:02:05.254Z,7.9
2022-12-31T11:03:28.948Z,9
2022-12-31T11:04:41.363Z,9.3
2022-12-31T11:05:51.623Z,8.8
2022-12-31T11:07:10.171Z,7.5
2022-12-31T11:08:23.214Z,10
2022-12-31T11:09:36.759Z,8.7
2022-12-31T11:10:54.869Z,9.6
2022-12-31T11:12:09.015Z,9.3
2022-12-31T11:13:28.807Z,8.7
2022-12-31T11:14:41.302Z,9.1
2022-12-31T11:15:53.803Z,9.8
2022-12-31T11:17:08.948Z,8.5
2022-12-31T11:18:20.141Z,8.1
2022-12-31T11:19:32.635Z,8.9
2022-12-31T11:20:48.327Z,9.1
2022-12-31T11:22:01.300Z,9.4
2022-12-31T11:23:14.924Z,9.4
2022-12-31T11:24:32.395Z,8.7
2022-12-31T11:25:46.951Z,9.9
2022-12-31T11:27:06.115Z,10.4
2022-12-31T11:28:17.719Z,9.9
2022-12-31T11:29:29.898Z,11.2
2022-12-31T11:30:46.913Z,9.2
2022-12-31T11:32:00.751Z,8.5
2022-12-31T11:33:11.226Z,8.8
2022-12-31T11:34:25.671Z,9
2022-12-31T11:35:38.572Z,8.9
2022-12-31T11:36:55.808Z,8.3
2022-12-31T11:38:10.919Z,10.1
2022-12-31T11:39:20.529Z,9.6
2022-12-31T11:40:37.735Z,9.8
2022-12-31T11:41:53.939Z,9.7
2022-12-31T11:43:07.109Z,10.2
2022-12-31T11:44:14.139Z,9.1
2022-12-31T11:45:22.462Z,8.4
2022-12-31T11:46:34.744Z,9.7
2022-12-31T11:48:20.413Z,9.9
2022-12-31T11:48:59.898Z,9.5
2022-12-31T11:50:16.710Z,9.7
2022-12-31T11:51:29.471Z,12.1
2022-12-31T11:52:44.781Z,8.7
2022-12-31T11:53:55.605Z,10.3
2022-12-31T11:55:13.386Z,9.1
2022-12-31T11:56:29.318Z,9.2
2022-12-31T11:57:39.482Z,9.1
2022-12-31T11:58:47.205Z,9.4
2022-12-31T11:59:54.650Z,9.6
2022-12-31T12:01:05.494Z,10
2022-12-31T12:02:13.733Z,10.9
2022-12-31T12:03:24.160Z,9.6
2022-12-31T12:04:33.529Z,10
2022-12-31T12:05:42.680Z,11.4
2022-12-31T12:06:52.531Z,9.9
2022-12-31T12:08:01.241Z,13.4
2022-12-31T12:09:09.053Z,13.9
2022-12-31T12:10:19.933Z,13
2022-12-31T12:11:33.056Z,13.3
2022-12-31T12:12:43.965Z,11.6
2022-12-31T12:13:52.399Z,12.8
2022-12-31T12:15:00.766Z,12.9
2022-12-31T12:16:08.236Z,13.1
2022-12-31T12:17:15.366Z,13
2022-12-31T12:18:27.484Z,12.4
2022-12-31T12:19:39.448Z,12.8
2022-12-31T12:20:47.204Z,11.7
2022-12-31T12:21:55.400Z,11.3
2022-12-31T12:23:03.767Z,9.8
2022-12-31T12:24:16.185Z,10.9
2022-12-31T12:25:24.562Z,10.1
2022-12-31T12:26:37.549Z,11.4
2022-12-31T12:27:47.566Z,11.5
2022-12-31T12:28:55.412Z,14
2022-12-31T12:30:03.926Z,12.1
2022-12-31T12:31:16.356Z,14.5
2022-12-31T12:32:23.925Z,11.2
2022-12-31T12:33:31.054Z,12.3
2022-12-31T12:34:49.767Z,13.3
2022-12-31T12:35:53.598Z,11.7
2022-12-31T12:37:08.872Z,12.2
2022-12-31T12:38:21.255Z,11.2
2022-12-31T12:39:28.071Z,10.9
2022-12-31T12:40:35.414Z,11.4
2022-12-31T12:41:43.165Z,12.1
2022-12-31T12:42:53.627Z,11.1
2022-12-31T12:44:01.016Z,11
2022-12-31T12:45:08.341Z,10.7
2022-12-31T12:46:20.196Z,11
2022-12-31T12:47:35.361Z,12.1
2022-12-31T12:48:42.626Z,11.7
2022-12-31T12:49:49.662Z,12
2022-12-31T12:50:56.795Z,12.9
2022-12-31T12:52:05.549Z,13.4
2022-12-31T12:53:23.226Z,13.7
2022-12-31T12:54:30.270Z,13
2022-12-31T12:55:43.200Z,12.6
2022-12-31T12:57:02.105Z,12.8
2022-12-31T12:58:19.241Z,12.7
2022-12-31T12:59:36.227Z,12.1
2022-12-31T13:00:54.749Z,11.9
2022-12-31T13:02:07.354Z,14.1
2022-12-31T13:03:24.665Z,12
2022-12-31T13:04:42.033Z,12.9
2022-12-31T13:05:52.971Z,12.9
2022-12-31T13:07:01.240Z,13.2
2022-12-31T13:08:13.507Z,14.8
2022-12-31T13:09:33.394Z,14.6
2022-12-31T13:10:46.012Z,15.5
2022-12-31T13:12:07.470Z,13.2
2022-12-31T13:13:26.184Z,15
2022-12-31T13:14:31.635Z,14.3
2022-12-31T13:15:44.355Z,12.6
2022-12-31T13:16:56.753Z,12.5
2022-12-31T13:18:09.666Z,12.2
2022-12-31T13:19:17.468Z,12.9
2022-12-31T13:20:30.022Z,11.2
2022-12-31T13:21:48.765Z,12.6
2022-12-31T13:22:58.957Z,13.3
2022-12-31T13:24:05.860Z,13.4
2022-12-31T13:25:23.807Z,12.4
2022-12-31T13:26:35.872Z,11.4
2022-12-31T13:27:54.532Z,13.8
2022-12-31T13:29:02.932Z,11.6
2022-12-31T13:30:09.933Z,11
2022-12-31T13:31:22.561Z,13.5
2022-12-31T13:32:30.042Z,15.1
2022-12-31T13:33:38.006Z,11.7
2022-12-31T13:34:48.017Z,11.5
2022-12-31T13:35:57.075Z,11.5
2022-12-31T13:37:07.608Z,12.8
2022-12-31T13:38:22.266Z,14
2022-12-31T13:39:30.544Z,12.5
2022-12-31T13:40:37.693Z,12.7
2022-12-31T13:41:51.805Z,13
2022-12-31T13:43:07.736Z,14.4
2022-12-31T13:44:23.861Z,13
2022-12-31T13:45:36.063Z,14.1
2022-12-31T13:46:45.144Z,14.5
2022-12-31T13:47:55.533Z,13.5
2022-12-31T13:49:06.156Z,16
2022-12-31T13:50:14.629Z,14.3
2022-12-31T13:51:33.540Z,13
2022-12-31T13:52:43.789Z,14.7
2022-12-31T13:53:57.514Z,15
2022-12-31T13:55:12.758Z,17.1
2022-12-31T13:56:30.965Z,16.6
2022-12-31T13:57:39.653Z,14.5
2022-12-31T13:58:54.749Z,16
2022-12-31T14:00:06.331Z,14.2
2022-12-31T14:01:22.432Z,15.8
2022-12-31T14:02:40.611Z,15
2022-12-31T14:03:56.432Z,13.3
2022-12-31T14:05:11.262Z,13.9
2022-12-31T14:06:21.300Z,13
2022-12-31T14:07:45.495Z,13.4
2022-12-31T14:08:50.631Z,13.3
2022-12-31T14:09:59.352Z,12.3
2022-12-31T14:11:08.345Z,11.5
2022-12-31T14:12:21.393Z,13.8
2022-12-31T14:13:38.436Z,11.7
2022-12-31T14:14:50.901Z,10.5
2022-12-31T14:16:03.619Z,10.1
2022-12-31T14:17:16.622Z,8.3
2022-12-31T14:18:31.659Z,11.1
2022-12-31T14:19:41.404Z,9.9
2022-12-31T14:20:50.070Z,11.1
2022-12-31T14:22:06.412Z,10.4
2022-12-31T14:23:23.205Z,11.4
2022-12-31T14:24:38.263Z,9.6
2022-12-31T14:25:49.157Z,11.2
2022-12-31T14:27:01.029Z,10.5
2022-12-31T14:28:07.899Z,11.6
2022-12-31T14:29:15.595Z,10.9
2022-12-31T14:30:26.308Z,13.4
2022-12-31T14:31:33.581Z,14.1
2022-12-31T14:32:52.757Z,11.7
2022-12-31T14:34:06.817Z,12.3
2022-12-31T14:35:21.933Z,10.6
2022-12-31T14:36:39.146Z,12.4
2022-12-31T14:37:59.177Z,14.2
2022-12-31T14:39:06.877Z,13.4
2022-12-31T14:40:19.123Z,14.6
2022-12-31T14:41:32.398Z,15.1
2022-12-31T14:42:45.857Z,15.8
2022-12-31T14:44:05.431Z,14.7
2022-12-31T14:45:22.848Z,15.7
2022-12-31T14:46:35.132Z,15.7
2022-12-31T14:47:42.917Z,16.7
2022-12-31T14:48:51.357Z,14.5
2022-12-31T14:50:06.625Z,15.9
2022-12-31T14:51:18.905Z,17.3
2022-12-31T14:52:27.900Z,17.8
2022-12-31T14:53:35.536Z,14.4
2022-12-31T14:54:43.301Z,15.4
2022-12-31T14:55:50.876Z,16.1
2022-12-31T14:57:01.522Z,15.7
2022-12-31T14:58:27.481Z,13.3
2022-12-31T14:59:28.521Z,14.5
2022-12-31T15:00:35.900Z,14.4
2022-12-31T15:01:44.980Z,14.4
2022-12-31T15:02:52.353Z,12.9
2022-12-31T15:04:06.090Z,13.2
2022-12-31T15:05:13.401Z,12.8
2022-12-31T15:06:20.332Z,11.5
2022-12-31T15:07:27.642Z,12.5
2022-12-31T15:08:37.616Z,11.1
2022-12-31T15:09:55.286Z,12.3
2022-12-31T15:11:12.738Z,13.1
2022-12-31T15:12:30.713Z,13.4
2022-12-31T15:13:43.366Z,13.3
2022-12-31T15:15:01.321Z,11.2
2022-12-31T15:16:12.283Z,11.6
2022-12-31T15:17:28.027Z,12.2
2022-12-31T15:18:43.356Z,12.4
2022-12-31T15:19:59.780Z,19.2
2022-12-31T15:21:12.403Z,11.6
2022-12-31T15:22:30.023Z,13.6
2022-12-31T15:23:40.599Z,13.4
2022-12-31T15:24:47.937Z,14.6
2022-12-31T15:25:55.398Z,15.4
2022-12-31T15:27:03.266Z,15.4
2022-12-31T15:28:11.436Z,14.5
2022-12-31T15:29:25.352Z,17.2
2022-12-31T15:30:36.866Z,16
2022-12-31T15:31:46.941Z,14.9
2022-12-31T15:32:54.275Z,15.2
2022-12-31T15:34:02.553Z,17.3
2022-12-31T15:35:10.898Z,17.2
2022-12-31T15:36:25.489Z,17.3
2022-12-31T15:37:34.178Z,17.7
2022-12-31T15:38:41.338Z,17.5
2022-12-31T15:39:49.170Z,16.3
2022-12-31T15:40:55.887Z,17.6
2022-12-31T15:42:37.085Z,16.1
2022-12-31T15:43:22.090Z,15.4
2022-12-31T15:44:34.975Z,17.1
2022-12-31T15:45:48.549Z,17.4
2022-12-31T15:46:57.434Z,16.5
2022-12-31T15:48:07.795Z,29.2
2022-12-31T15:49:23.935Z,22.9
2022-12-31T15:50:32.328Z,25
2022-12-31T15:51:39.562Z,23.3
2022-12-31T15:52:49.393Z,22.1
2022-12-31T15:54:02.694Z,20.8
2022-12-31T15:55:10.629Z,22